createdAt,value
2018-03-14T00:00:59.472Z,62.3
2018-03-14T00:02:01.084Z,62.2
2018-03-14T00:03:02.691Z,62.3
2018-03-14T00:04:04.305Z,61.6
2018-03-14T00:05:05.911Z,62.2
2018-03-14T00:06:07.519Z,61.9
2018-03-14T00:07:09.135Z,62.6
2018-03-14T00:08:10.749Z,61.8
2018-03-14T00:09:12.354Z,62.0
2018-03-14T00:10:13.963Z,61.9
2018-03-14T00:11:15.574Z,61.6
2018-03-14T00:12:17.183Z,61.9
2018-03-14T00:13:18.789Z,62.0
2018-03-14T00:14:20.398Z,61.7
2018-03-14T00:15:22.018Z,62.0
2018-03-14T00:16:23.625Z,61.9
2018-03-14T00:17:25.235Z,62.4
2018-03-14T00:18:26.843Z,63.1
2018-03-14T00:19:28.459Z,63.0
2018-03-14T00:20:30.066Z,62.7
2018-03-14T00:21:31.677Z,62.5
2018-03-14T00:22:33.287Z,62.2
2018-03-14T00:23:34.899Z,62.2
2018-03-14T00:24:36.511Z,62.6
2018-03-14T00:25:38.114Z,62.4
2018-03-14T00:26:39.731Z,62.2
2018-03-14T00:27:41.331Z,62.2
2018-03-14T00:28:42.939Z,62.1
2018-03-14T00:29:44.550Z,62.2
2018-03-14T00:30:46.156Z,62.1
2018-03-14T00:31:47.777Z,62.5
2018-03-14T00:32:49.372Z,62.6
2018-03-14T00:33:50.986Z,62.0
2018-03-14T00:34:52.591Z,61.7
2018-03-14T00:35:54.203Z,61.5
2018-03-14T00:36:55.819Z,61.8
2018-03-14T00:37:57.428Z,62.2
2018-03-14T00:38:59.048Z,62.6
2018-03-14T00:40:00.652Z,61.9
2018-03-14T00:41:02.263Z,62.1
2018-03-14T00:42:03.867Z,61.7
2018-03-14T00:43:05.474Z,61.7
2018-03-14T00:44:07.087Z,62.0
2018-03-14T00:45:08.698Z,62.2
2018-03-14T00:46:10.306Z,62.1
2018-03-14T00:47:11.917Z,62.2
2018-03-14T00:48:13.523Z,61.6
2018-03-14T00:49:15.137Z,61.9
2018-03-14T00:50:16.744Z,61.5
2018-03-14T00:51:18.359Z,61.0
2018-03-14T00:52:19.966Z,61.0
2018-03-14T00:53:21.580Z,60.3
2018-03-14T00:54:23.187Z,60.4
2018-03-14T00:55:24.841Z,60.3
2018-03-14T00:56:26.407Z,60.7
2018-03-14T00:57:28.018Z,60.4
2018-03-14T00:58:29.623Z,61.5
2018-03-14T00:59:31.233Z,62.6
2018-03-14T01:00:32.844Z,62.7
2018-03-14T01:01:34.449Z,62.6
2018-03-14T01:02:36.061Z,62.8
2018-03-14T01:03:37.671Z,62.4
2018-03-14T01:04:39.278Z,62.4
2018-03-14T01:05:40.884Z,62.9
2018-03-14T01:06:42.497Z,62.9
2018-03-14T01:07:44.108Z,63.2
2018-03-14T01:08:45.714Z,64.4
2018-03-14T01:09:47.322Z,65.1
2018-03-14T01:10:48.935Z,65.5
2018-03-14T01:11:50.543Z,65.1
2018-03-14T01:12:52.155Z,64.2
2018-03-14T01:13:53.762Z,63.8
2018-03-14T01:14:55.378Z,63.4
2018-03-14T01:15:56.982Z,63.7
2018-03-14T01:16:58.598Z,64.5
2018-03-14T01:18:00.203Z,63.8
2018-03-14T01:19:01.820Z,63.5
2018-03-14T01:20:03.417Z,64.3
2018-03-14T01:21:05.032Z,65.2
2018-03-14T01:22:07.246Z,64.2
2018-03-14T01:23:08.849Z,64.3
2018-03-14T01:24:10.457Z,65.5
2018-03-14T01:25:12.070Z,64.8
2018-03-14T01:26:13.676Z,64.1
2018-03-14T01:27:15.291Z,64.1
2018-03-14T01:28:16.903Z,63.4
2018-03-14T01:29:18.510Z,63.0
2018-03-14T01:30:20.113Z,63.1
2018-03-14T01:31:21.728Z,63.0
2018-03-14T01:32:23.338Z,63.4
2018-03-14T01:33:24.944Z,63.0
2018-03-14T01:34:26.559Z,62.9
2018-03-14T01:35:28.167Z,63.0
2018-03-14T01:36:29.773Z,62.8
2018-03-14T01:37:31.384Z,65.2
2018-03-14T01:38:33.490Z,65.5
2018-03-14T01:39:35.099Z,64.4
2018-03-14T01:40:36.711Z,63.7
2018-03-14T01:41:38.322Z,63.1
2018-03-14T01:42:39.932Z,62.2
2018-03-14T01:43:41.538Z,62.3
2018-03-14T01:44:43.143Z,62.3
2018-03-14T01:45:44.757Z,61.7
2018-03-14T01:46:46.365Z,61.3
2018-03-14T01:47:47.972Z,61.6
2018-03-14T01:48:49.581Z,60.9
2018-03-14T01:49:51.196Z,60.9
2018-03-14T01:50:52.802Z,61.0
2018-03-14T01:51:54.411Z,60.9
2018-03-14T01:52:56.021Z,60.5
2018-03-14T01:53:57.628Z,60.4
2018-03-14T01:54:59.236Z,60.4
2018-03-14T01:56:00.843Z,60.4
2018-03-14T01:57:02.454Z,61.0
2018-03-14T01:58:05.007Z,61.2
2018-03-14T01:59:06.619Z,62.2
2018-03-14T02:00:08.226Z,62.4
2018-03-14T02:15:04.217Z,60.8
2018-03-14T02:16:05.820Z,60.9
2018-03-14T02:17:57.503Z,60.3
2018-03-14T02:18:59.110Z,60.5
2018-03-14T02:20:51.762Z,60.3
2018-03-14T02:21:53.374Z,60.2
2018-03-14T02:23:45.060Z,61.4
2018-03-14T02:24:46.666Z,61.7
2018-03-14T02:26:38.371Z,61.2
2018-03-14T02:27:39.979Z,61.0
2018-03-14T02:29:31.681Z,60.8
2018-03-14T02:30:33.292Z,60.6
2018-03-14T02:32:24.974Z,60.3
2018-03-14T02:33:26.580Z,60.4
2018-03-14T02:35:18.288Z,60.4
2018-03-14T02:36:19.898Z,60.4
2018-03-14T02:38:12.336Z,60.6
2018-03-14T02:39:13.938Z,60.3
2018-03-14T02:41:05.640Z,60.3
2018-03-14T02:42:07.247Z,60.5
2018-03-14T02:43:58.935Z,60.6
2018-03-14T02:45:00.540Z,60.5
2018-03-14T02:46:52.237Z,60.7
2018-03-14T02:47:53.847Z,60.9
2018-03-14T02:49:45.545Z,60.7
2018-03-14T02:50:47.152Z,60.7
2018-03-14T02:52:38.835Z,60.3
2018-03-14T02:53:40.443Z,60.4
2018-03-14T02:55:32.147Z,60.7
2018-03-14T02:56:33.759Z,60.8
2018-03-14T02:58:25.440Z,60.6
2018-03-14T02:59:27.055Z,61.2
2018-03-14T03:01:18.758Z,60.8
2018-03-14T03:02:20.366Z,63.0
2018-03-14T03:04:12.053Z,62.4
2018-03-14T03:05:13.656Z,63.1
2018-03-14T03:07:05.364Z,61.9
2018-03-14T03:08:06.968Z,62.0
2018-03-14T03:09:58.676Z,62.0
2018-03-14T03:11:00.284Z,61.0
2018-03-14T03:12:52.015Z,61.6
2018-03-14T03:13:53.580Z,60.9
2018-03-14T03:15:45.280Z,61.0
2018-03-14T03:16:46.895Z,60.9
2018-03-14T03:18:39.334Z,61.3
2018-03-14T03:19:40.944Z,61.5
2018-03-14T03:21:32.645Z,60.8
2018-03-14T03:22:34.249Z,60.7
2018-03-14T03:24:25.931Z,60.7
2018-03-14T03:25:27.545Z,60.7
2018-03-14T03:27:19.253Z,60.7
2018-03-14T03:28:20.862Z,60.3
2018-03-14T03:30:12.561Z,60.2
2018-03-14T03:31:14.167Z,60.3
2018-03-14T03:33:05.859Z,60.4
2018-03-14T03:34:07.465Z,60.4
2018-03-14T03:35:59.162Z,60.3
2018-03-14T03:37:00.773Z,60.2
2018-03-14T03:38:52.462Z,59.7
2018-03-14T03:39:54.061Z,59.9
2018-03-14T03:41:45.760Z,60.0
2018-03-14T03:42:47.373Z,59.8
2018-03-14T03:44:39.077Z,60.1
2018-03-14T03:45:40.687Z,59.4
2018-03-14T03:47:32.381Z,59.8
2018-03-14T03:48:33.984Z,59.8
2018-03-14T03:50:26.544Z,59.8
2018-03-14T03:51:28.142Z,59.6
2018-03-14T03:53:19.824Z,59.8
2018-03-14T03:54:21.440Z,59.8
2018-03-14T03:56:13.140Z,59.4
2018-03-14T03:57:14.744Z,59.4
2018-03-14T03:59:06.430Z,59.3
2018-03-14T04:00:08.036Z,59.2
2018-03-14T04:01:59.741Z,59.0
2018-03-14T04:03:01.346Z,58.9
2018-03-14T04:04:53.051Z,60.2
2018-03-14T04:05:54.657Z,60.3
2018-03-14T04:07:46.348Z,60.1
2018-03-14T04:08:47.952Z,60.3
2018-03-14T04:10:39.659Z,60.2
2018-03-14T04:11:41.262Z,60.3
2018-03-14T04:13:32.948Z,59.8
2018-03-14T04:14:34.589Z,59.7
2018-03-14T04:16:26.265Z,59.8
2018-03-14T04:17:27.875Z,59.6
2018-03-14T04:19:19.564Z,59.7
2018-03-14T04:20:21.173Z,59.8
2018-03-14T04:22:12.872Z,60.0
2018-03-14T04:23:14.480Z,59.8
2018-03-14T04:25:06.181Z,59.5
2018-03-14T04:26:07.795Z,59.6
2018-03-14T04:27:59.484Z,59.8
2018-03-14T04:29:02.027Z,59.8
2018-03-14T04:30:53.730Z,59.8
2018-03-14T04:31:55.338Z,59.6
2018-03-14T04:33:47.027Z,59.8
2018-03-14T04:34:48.633Z,59.6
2018-03-14T04:36:41.357Z,59.6
2018-03-14T04:37:42.952Z,59.6
2018-03-14T04:39:34.660Z,60.0
2018-03-14T04:40:36.262Z,59.8
2018-03-14T04:42:27.947Z,59.8
2018-03-14T04:43:29.553Z,59.2
2018-03-14T04:45:21.254Z,59.2
2018-03-14T04:46:22.858Z,59.1
2018-03-14T04:48:15.252Z,58.9
2018-03-14T04:49:16.859Z,59.1
2018-03-14T04:51:08.560Z,59.4
2018-03-14T04:52:10.170Z,58.9
2018-03-14T04:54:01.858Z,58.7
2018-03-14T04:55:03.465Z,58.8
2018-03-14T04:56:55.168Z,58.8
2018-03-14T04:57:56.775Z,58.8
2018-03-14T04:59:48.475Z,60.3
2018-03-14T05:00:50.088Z,59.7
2018-03-14T05:02:41.770Z,59.3
2018-03-14T05:03:43.382Z,59.5
2018-03-14T05:05:35.927Z,59.6
2018-03-14T05:06:37.536Z,59.1
2018-03-14T05:08:29.223Z,59.0
2018-03-14T05:09:30.827Z,58.8
2018-03-14T05:11:22.528Z,58.5
2018-03-14T05:12:24.986Z,58.5
2018-03-14T05:14:16.804Z,58.4
2018-03-14T05:15:18.367Z,58.2
2018-03-14T05:17:10.071Z,58.5
2018-03-14T05:18:11.685Z,58.4
2018-03-14T05:20:03.386Z,58.7
2018-03-14T05:21:04.999Z,58.3
2018-03-14T05:22:56.678Z,58.5
2018-03-14T05:23:58.289Z,58.3
2018-03-14T05:25:49.990Z,58.2
2018-03-14T05:26:51.602Z,58.4
2018-03-14T05:28:43.287Z,58.5
2018-03-14T05:29:44.899Z,58.1
2018-03-14T05:31:36.603Z,57.7
2018-03-14T05:32:38.210Z,57.7
2018-03-14T05:34:29.909Z,57.8
2018-03-14T05:35:31.517Z,57.8
2018-03-14T05:37:23.222Z,58.0
2018-03-14T05:38:24.832Z,58.3
2018-03-14T05:40:16.542Z,58.3
2018-03-14T05:41:18.146Z,58.4
2018-03-14T05:43:10.490Z,58.1
2018-03-14T05:44:12.095Z,58.4
2018-03-14T05:46:03.797Z,58.3
2018-03-14T05:47:05.409Z,58.1
2018-03-14T05:48:57.094Z,58.2
2018-03-14T05:49:58.701Z,58.0
2018-03-14T05:51:50.407Z,58.4
2018-03-14T05:52:52.017Z,58.5
2018-03-14T05:54:44.449Z,58.1
2018-03-14T05:55:46.063Z,58.6
2018-03-14T05:57:37.749Z,58.1
2018-03-14T05:58:39.359Z,58.2
2018-03-14T06:00:31.057Z,58.4
2018-03-14T06:01:32.675Z,58.6
2018-03-14T06:03:24.358Z,58.2
2018-03-14T06:04:25.971Z,58.3
2018-03-14T06:06:17.676Z,58.1
2018-03-14T06:07:19.282Z,58.3
2018-03-14T06:09:10.973Z,58.2
2018-03-14T06:10:12.582Z,58.8
2018-03-14T06:12:05.134Z,58.8
2018-03-14T06:13:06.803Z,58.5
2018-03-14T06:14:58.459Z,58.2
2018-03-14T06:16:00.075Z,58.7
2018-03-14T06:17:51.761Z,59.5
2018-03-14T06:18:53.378Z,59.3
2018-03-14T06:20:45.083Z,58.9
2018-03-14T06:21:46.691Z,58.6
2018-03-14T06:23:38.384Z,59.1
2018-03-14T06:24:39.992Z,58.8
2018-03-14T06:26:31.709Z,59.6
2018-03-14T06:27:33.316Z,59.2
2018-03-14T06:29:25.007Z,59.5
2018-03-14T06:30:26.616Z,58.8
2018-03-14T06:32:18.326Z,59.0
2018-03-14T06:33:19.933Z,58.5
2018-03-14T06:35:11.646Z,58.8
2018-03-14T06:36:13.248Z,58.4
2018-03-14T06:38:05.691Z,58.2
2018-03-14T06:39:07.303Z,58.1
2018-03-14T06:40:59.002Z,58.1
2018-03-14T06:42:00.614Z,58.3
2018-03-14T06:43:52.305Z,58.1
2018-03-14T06:44:53.914Z,58.1
2018-03-14T06:46:45.618Z,58.0
2018-03-14T06:47:47.232Z,58.2
2018-03-14T06:49:38.937Z,57.6
2018-03-14T06:50:40.546Z,58.1
2018-03-14T06:52:32.732Z,58.1
2018-03-14T06:53:34.345Z,58.2
2018-03-14T06:54:35.952Z,59.3
2018-03-14T06:55:37.563Z,59.7
2018-03-14T06:56:39.180Z,61.1
2018-03-14T06:57:40.807Z,60.7
2018-03-14T06:58:42.420Z,60.1
2018-03-14T06:59:44.034Z,59.9
2018-03-14T07:00:45.651Z,59.4
2018-03-14T07:01:47.266Z,59.4
2018-03-14T07:02:48.874Z,59.7
2018-03-14T07:03:50.490Z,59.8
2018-03-14T07:04:52.115Z,60.0
2018-03-14T07:05:53.726Z,60.1
2018-03-14T07:06:55.337Z,59.7
2018-03-14T07:07:56.956Z,59.5
2018-03-14T07:08:58.565Z,59.3
2018-03-14T07:10:00.178Z,60.9
2018-03-14T07:11:01.796Z,62.1
2018-03-14T07:12:03.421Z,61.3
2018-03-14T07:13:05.030Z,61.5
2018-03-14T07:14:06.646Z,61.4
2018-03-14T07:15:08.263Z,61.5
2018-03-14T07:16:09.879Z,61.3
2018-03-14T07:17:11.490Z,61.4
2018-03-14T07:18:13.106Z,61.4
2018-03-14T07:19:14.723Z,61.1
2018-03-14T07:20:16.339Z,60.9
2018-03-14T07:21:17.953Z,59.8
2018-03-14T07:22:19.565Z,59.7
2018-03-14T07:23:21.184Z,59.4
2018-03-14T07:24:22.803Z,59.5
2018-03-14T07:25:24.412Z,59.0
2018-03-14T07:26:26.033Z,60.5
2018-03-14T07:27:27.646Z,60.6
2018-03-14T07:28:29.267Z,61.7
2018-03-14T07:29:30.872Z,62.5
2018-03-14T07:30:32.489Z,62.4
2018-03-14T07:31:34.101Z,62.4
2018-03-14T07:32:35.721Z,61.6
2018-03-14T07:33:37.333Z,60.9
2018-03-14T07:34:38.957Z,60.4
2018-03-14T07:35:40.568Z,60.8
2018-03-14T07:36:42.187Z,60.8
2018-03-14T07:37:43.796Z,61.3
2018-03-14T07:38:45.416Z,61.4
2018-03-14T07:39:47.027Z,60.7
2018-03-14T07:40:48.640Z,61.2
2018-03-14T07:41:50.262Z,62.0
2018-03-14T07:42:51.880Z,62.9
2018-03-14T07:43:53.493Z,63.6
2018-03-14T07:44:55.107Z,62.4
2018-03-14T07:45:56.724Z,61.8
2018-03-14T07:46:58.337Z,61.2
2018-03-14T07:47:59.958Z,61.3
2018-03-14T07:49:01.568Z,64.7
2018-03-14T07:50:03.190Z,65.2
2018-03-14T07:51:04.801Z,68.7
2018-03-14T07:52:06.420Z,66.7
2018-03-14T07:53:08.898Z,65.3
2018-03-14T07:54:10.519Z,64.2
2018-03-14T07:55:12.151Z,63.1
2018-03-14T07:56:13.752Z,62.8
2018-03-14T07:57:15.370Z,62.8
2018-03-14T07:58:16.984Z,66.9
2018-03-14T07:59:18.598Z,67.8
2018-03-14T08:00:20.219Z,68.5
2018-03-14T08:01:21.833Z,68.9
2018-03-14T08:02:23.448Z,70.0
2018-03-14T08:03:25.066Z,73.6
2018-03-14T08:04:26.689Z,79.8
2018-03-14T08:05:28.299Z,81.4
2018-03-14T08:06:29.920Z,81.9
2018-03-14T08:07:31.537Z,73.0
2018-03-14T08:08:33.151Z,70.4
2018-03-14T08:09:34.769Z,75.8
2018-03-14T08:10:36.394Z,73.7
2018-03-14T08:11:38.010Z,72.1
2018-03-14T08:12:39.620Z,70.2
2018-03-14T08:13:41.411Z,69.3
2018-03-14T08:14:42.862Z,77.5
2018-03-14T08:15:44.472Z,72.1
2018-03-14T08:16:46.089Z,75.0
2018-03-14T08:17:47.714Z,74.0
2018-03-14T08:18:49.329Z,83.9
2018-03-14T08:19:50.951Z,77.4
2018-03-14T08:20:52.560Z,72.2
2018-03-14T08:21:54.182Z,72.6
2018-03-14T08:22:55.796Z,71.8
2018-03-14T08:23:57.409Z,73.2
2018-03-14T08:24:59.033Z,72.6
2018-03-14T08:26:00.700Z,73.5
2018-03-14T08:27:02.264Z,73.9
2018-03-14T08:28:03.876Z,74.2
2018-03-14T08:29:05.658Z,74.5
2018-03-14T08:30:07.280Z,70.8
2018-03-14T08:31:08.894Z,73.6
2018-03-14T08:32:10.508Z,73.2
2018-03-14T08:33:12.135Z,76.4
2018-03-14T08:34:13.741Z,74.6
2018-03-14T08:35:15.431Z,72.5
2018-03-14T08:36:17.045Z,71.9
2018-03-14T08:37:18.671Z,80.9
2018-03-14T08:38:20.294Z,83.5
2018-03-14T08:39:21.913Z,78.2
2018-03-14T08:40:23.540Z,75.3
2018-03-14T08:41:25.156Z,84.2
2018-03-14T08:42:26.780Z,78.0
2018-03-14T08:43:28.396Z,81.9
2018-03-14T08:44:30.026Z,83.1
2018-03-14T08:45:31.637Z,83.2
2018-03-14T08:46:33.262Z,79.3
2018-03-14T08:47:34.881Z,80.1
2018-03-14T08:48:38.939Z,85.5
2018-03-14T08:49:40.502Z,86.5
2018-03-14T08:50:42.124Z,82.5
2018-03-14T08:51:43.742Z,84.3
2018-03-14T08:52:45.361Z,84.2
2018-03-14T08:53:46.986Z,83.6
2018-03-14T08:54:48.605Z,89.7
2018-03-14T08:55:50.277Z,89.4
2018-03-14T08:56:51.844Z,86.2
2018-03-14T08:57:53.465Z,87.4
2018-03-14T08:58:55.081Z,95.0
2018-03-14T08:59:56.712Z,90.0
2018-03-14T09:00:58.325Z,95.7
2018-03-14T09:01:59.950Z,94.9
2018-03-14T09:03:01.572Z,88.8
2018-03-14T09:04:03.182Z,95.2
2018-03-14T09:05:04.824Z,93.2
2018-03-14T09:06:06.443Z,91.5
2018-03-14T09:07:08.082Z,92.0
2018-03-14T09:08:09.703Z,91.4
2018-03-14T09:09:11.319Z,91.7
2018-03-14T09:10:12.943Z,94.4
2018-03-14T09:11:14.556Z,94.7
2018-03-14T09:12:16.179Z,96.4
2018-03-14T09:13:17.798Z,95.4
2018-03-14T09:14:19.416Z,91.7
2018-03-14T09:15:21.037Z,95.7
2018-03-14T09:16:22.662Z,94.6
2018-03-14T09:17:24.296Z,93.4
2018-03-14T09:18:27.775Z,93.6
2018-03-14T09:19:29.359Z,96.4
2018-03-14T09:20:30.977Z,95.8
2018-03-14T09:21:32.705Z,93.6
2018-03-14T09:22:34.360Z,94.9
2018-03-14T09:23:36.014Z,92.5
2018-03-14T09:24:37.632Z,93.9
2018-03-14T09:25:39.262Z,96.0
2018-03-14T09:26:40.887Z,94.7
2018-03-14T09:27:42.506Z,96.2
2018-03-14T09:28:44.125Z,92.1
2018-03-14T09:29:45.749Z,97.5
2018-03-14T09:30:47.372Z,92.1
2018-03-14T09:31:49.009Z,89.3
2018-03-14T09:32:50.610Z,91.5
2018-03-14T09:33:52.791Z,92.5
2018-03-14T09:34:54.416Z,92.3
2018-03-14T09:35:56.037Z,95.9
2018-03-14T09:36:57.659Z,87.3
2018-03-14T09:37:59.277Z,89.9
2018-03-14T09:39:00.904Z,92.0
2018-03-14T09:40:02.514Z,92.2
2018-03-14T09:41:04.138Z,92.8
2018-03-14T09:42:05.758Z,93.8
2018-03-14T09:43:07.384Z,93.0
2018-03-14T09:44:09.008Z,91.5
2018-03-14T09:45:10.628Z,93.6
2018-03-14T09:46:12.256Z,90.9
2018-03-14T09:47:13.869Z,93.5
2018-03-14T09:48:15.496Z,90.3
2018-03-14T09:49:17.111Z,90.0
2018-03-14T09:50:18.737Z,90.1
2018-03-14T09:51:20.356Z,89.2
2018-03-14T09:52:21.979Z,90.6
2018-03-14T09:53:23.595Z,93.3
2018-03-14T09:54:25.215Z,91.2
2018-03-14T09:55:26.839Z,89.3
2018-03-14T09:56:28.464Z,88.9
2018-03-14T09:57:30.080Z,89.1
2018-03-14T09:58:31.701Z,90.2
2018-03-14T09:59:33.327Z,89.1
2018-03-14T10:00:34.945Z,89.8
2018-03-14T10:01:36.566Z,91.6
2018-03-14T10:02:38.184Z,91.1
2018-03-14T10:03:39.809Z,93.7
2018-03-14T10:04:41.439Z,90.6
2018-03-14T10:05:43.068Z,91.7
2018-03-14T10:06:44.684Z,90.1
2018-03-14T10:07:46.305Z,90.3
2018-03-14T10:08:47.925Z,90.3
2018-03-14T10:09:49.546Z,92.6
2018-03-14T10:10:51.161Z,88.1
2018-03-14T10:11:52.787Z,90.5
2018-03-14T10:12:54.407Z,89.6
2018-03-14T10:13:56.092Z,88.4
2018-03-14T10:14:57.710Z,89.7
2018-03-14T10:15:59.333Z,89.0
2018-03-14T10:17:00.961Z,89.8
2018-03-14T10:18:02.574Z,90.4
2018-03-14T10:19:04.263Z,89.6
2018-03-14T10:20:05.858Z,89.8
2018-03-14T10:21:07.484Z,89.9
2018-03-14T10:22:09.100Z,90.4
2018-03-14T10:23:10.722Z,88.5
2018-03-14T10:24:12.347Z,86.9
2018-03-14T10:25:13.965Z,90.6
2018-03-14T10:26:15.593Z,87.9
2018-03-14T10:27:17.216Z,81.8
2018-03-14T10:28:18.840Z,83.1
2018-03-14T10:29:20.478Z,86.9
2018-03-14T10:30:22.096Z,79.8
2018-03-14T10:31:23.724Z,82.4
2018-03-14T10:32:25.345Z,79.6
2018-03-14T10:33:26.972Z,80.8
2018-03-14T10:34:28.591Z,80.5
2018-03-14T10:35:30.223Z,82.4
2018-03-14T10:36:31.847Z,81.4
2018-03-14T10:37:33.468Z,76.6
2018-03-14T10:38:35.096Z,69.4
2018-03-14T10:39:36.749Z,62.4
2018-03-14T10:40:38.372Z,68.7
2018-03-14T10:41:40.006Z,63.3
2018-03-14T10:42:41.628Z,60.8
2018-03-14T10:43:43.255Z,59.2
2018-03-14T10:44:44.885Z,62.9
2018-03-14T10:45:46.507Z,62.5
2018-03-14T10:46:48.140Z,60.7
2018-03-14T10:47:49.767Z,60.7
2018-03-14T10:48:51.401Z,58.0
2018-03-14T10:49:53.025Z,55.4
2018-03-14T10:50:54.656Z,58.3
2018-03-14T10:51:56.283Z,60.4
2018-03-14T10:52:57.913Z,61.9
2018-03-14T10:53:59.538Z,55.7
2018-03-14T10:55:01.173Z,55.6
2018-03-14T10:56:02.801Z,55.3
2018-03-14T10:57:04.423Z,58.0
2018-03-14T10:58:06.042Z,58.2
2018-03-14T10:59:07.675Z,58.3
2018-03-14T11:00:09.296Z,60.4
2018-03-14T11:01:10.923Z,60.8
2018-03-14T11:02:12.554Z,59.5
2018-03-14T11:03:14.176Z,61.8
2018-03-14T11:04:15.802Z,59.2
2018-03-14T11:05:17.427Z,63.7
2018-03-14T11:06:19.054Z,64.3
2018-03-14T11:07:20.675Z,66.6
2018-03-14T11:08:22.300Z,63.2
2018-03-14T11:09:23.931Z,65.8
2018-03-14T11:10:25.556Z,64.3
2018-03-14T11:11:27.182Z,61.4
2018-03-14T11:12:28.803Z,59.5
2018-03-14T11:13:30.436Z,59.1
2018-03-14T11:14:33.015Z,58.5
2018-03-14T11:15:34.661Z,56.8
2018-03-14T11:16:36.267Z,56.9
2018-03-14T11:17:37.897Z,59.2
2018-03-14T11:18:39.532Z,55.1
2018-03-14T11:19:41.180Z,58.9
2018-03-14T11:20:42.799Z,58.2
2018-03-14T11:21:44.428Z,57.6
2018-03-14T11:22:46.049Z,58.5
2018-03-14T11:23:47.682Z,56.7
2018-03-14T11:24:49.311Z,58.2
2018-03-14T11:25:50.934Z,59.4
2018-03-14T11:26:52.557Z,60.4
2018-03-14T11:27:54.184Z,62.0
2018-03-14T11:28:55.811Z,61.2
2018-03-14T11:29:58.079Z,61.1
2018-03-14T11:30:59.702Z,59.1
2018-03-14T11:32:01.335Z,53.8
2018-03-14T11:33:02.958Z,53.3
2018-03-14T11:34:04.583Z,53.3
2018-03-14T11:35:06.214Z,51.1
2018-03-14T11:36:07.835Z,50.6
2018-03-14T11:37:09.463Z,49.7
2018-03-14T11:38:11.090Z,48.2
2018-03-14T11:39:12.721Z,47.1
2018-03-14T11:40:14.347Z,47.7
2018-03-14T11:41:15.973Z,49.5
2018-03-14T11:42:17.666Z,49.3
2018-03-14T11:43:19.265Z,49.3
2018-03-14T11:44:20.889Z,49.3
2018-03-14T11:45:22.516Z,49.2
2018-03-14T11:46:24.770Z,49.4
2018-03-14T11:47:26.401Z,49.7
2018-03-14T11:48:28.023Z,50.4
2018-03-14T11:49:29.653Z,48.3
2018-03-14T11:50:31.280Z,49.5
2018-03-14T11:51:33.376Z,50.6
2018-03-14T11:52:35.023Z,49.0
2018-03-14T11:53:36.692Z,48.0
2018-03-14T11:54:38.306Z,44.9
2018-03-14T11:55:39.939Z,46.2
2018-03-14T11:56:41.566Z,47.4
2018-03-14T11:57:43.188Z,50.3
2018-03-14T11:58:44.818Z,51.6
2018-03-14T11:59:46.446Z,50.1
2018-03-14T12:00:48.071Z,50.7
2018-03-14T12:01:49.696Z,49.3
2018-03-14T12:02:51.327Z,47.0
2018-03-14T12:03:52.950Z,46.6
2018-03-14T12:04:54.573Z,46.8
2018-03-14T12:05:56.199Z,46.3
2018-03-14T12:06:57.822Z,46.2
2018-03-14T12:07:59.456Z,47.2
2018-03-14T12:09:01.085Z,46.6
2018-03-14T12:10:02.706Z,45.9
2018-03-14T12:11:04.333Z,46.8
2018-03-14T12:12:05.962Z,46.7
2018-03-14T12:13:07.585Z,47.6
2018-03-14T12:14:09.217Z,46.1
2018-03-14T12:15:10.845Z,46.0
2018-03-14T12:16:12.474Z,43.2
2018-03-14T12:17:14.093Z,45.0
2018-03-14T12:18:15.723Z,44.9
2018-03-14T12:19:17.343Z,46.6
2018-03-14T12:20:18.973Z,45.8
2018-03-14T12:21:20.595Z,44.8
2018-03-14T12:22:22.221Z,43.3
2018-03-14T12:23:23.844Z,43.5
2018-03-14T12:24:25.477Z,45.1
2018-03-14T12:25:27.103Z,44.5
2018-03-14T12:26:28.726Z,43.6
2018-03-14T12:27:30.355Z,44.8
2018-03-14T12:28:31.980Z,44.7
2018-03-14T12:29:33.602Z,47.2
2018-03-14T12:30:35.230Z,45.1
2018-03-14T12:31:36.854Z,45.0
2018-03-14T12:32:38.483Z,43.9
2018-03-14T12:33:40.100Z,44.1
2018-03-14T12:34:41.786Z,43.0
2018-03-14T12:35:43.382Z,44.0
2018-03-14T12:36:45.003Z,43.9
2018-03-14T12:37:46.626Z,43.0
2018-03-14T12:38:48.244Z,44.9
2018-03-14T12:39:49.868Z,43.0
2018-03-14T12:40:51.494Z,45.5
2018-03-14T12:41:53.113Z,46.1
2018-03-14T12:42:54.737Z,46.4
2018-03-14T12:43:56.364Z,47.0
2018-03-14T12:44:57.986Z,46.2
2018-03-14T12:45:59.610Z,46.4
2018-03-14T12:47:01.227Z,46.9
2018-03-14T12:48:02.853Z,48.1
2018-03-14T12:49:04.472Z,48.8
2018-03-14T12:50:06.098Z,48.2
2018-03-14T12:51:07.719Z,48.0
2018-03-14T12:52:09.346Z,48.8
2018-03-14T12:53:10.972Z,51.2
2018-03-14T12:54:12.593Z,49.9
2018-03-14T12:55:14.213Z,50.1
2018-03-14T12:56:15.855Z,51.6
2018-03-14T12:57:17.461Z,51.5
2018-03-14T12:58:19.089Z,52.9
2018-03-14T12:59:20.711Z,51.1
2018-03-14T13:00:22.329Z,50.6
2018-03-14T13:01:23.953Z,51.9
2018-03-14T13:02:25.618Z,52.0
2018-03-14T13:03:27.200Z,52.4
2018-03-14T13:04:28.820Z,54.8
2018-03-14T13:05:30.448Z,55.1
2018-03-14T13:06:32.071Z,55.1
2018-03-14T13:07:33.691Z,54.3
2018-03-14T13:08:35.310Z,55.8
2018-03-14T13:09:36.933Z,55.2
2018-03-14T13:10:38.556Z,55.5
2018-03-14T13:11:40.189Z,56.2
2018-03-14T13:12:41.797Z,57.0
2018-03-14T13:13:43.426Z,57.7
2018-03-14T13:14:45.045Z,59.5
2018-03-14T13:15:46.664Z,59.6
2018-03-14T13:16:48.288Z,58.2
2018-03-14T13:17:49.914Z,58.9
2018-03-14T13:18:51.532Z,59.5
2018-03-14T13:19:53.156Z,61.4
2018-03-14T13:20:54.778Z,60.1
2018-03-14T13:21:56.399Z,59.2
2018-03-14T13:22:58.018Z,60.2
2018-03-14T13:23:59.635Z,58.6
2018-03-14T13:25:01.261Z,58.2
2018-03-14T13:26:02.885Z,57.4
2018-03-14T13:27:04.502Z,57.7
2018-03-14T13:28:06.126Z,58.8
2018-03-14T13:29:07.749Z,60.0
2018-03-14T13:30:09.367Z,59.1
2018-03-14T13:31:10.990Z,57.8
2018-03-14T13:32:12.607Z,57.1
2018-03-14T13:33:14.232Z,57.4
2018-03-14T13:34:15.929Z,58.1
2018-03-14T13:35:17.551Z,57.4
2018-03-14T13:36:19.177Z,55.7
2018-03-14T13:37:20.796Z,55.5
2018-03-14T13:38:22.412Z,57.2
2018-03-14T13:39:24.036Z,56.2
2018-03-14T13:40:25.655Z,54.6
2018-03-14T13:41:27.281Z,54.8
2018-03-14T13:42:28.904Z,55.4
2018-03-14T13:43:30.538Z,53.6
2018-03-14T13:44:32.152Z,54.8
2018-03-14T13:45:33.776Z,54.8
2018-03-14T13:46:35.400Z,54.4
2018-03-14T13:47:37.016Z,53.0
2018-03-14T13:48:38.637Z,54.5
2018-03-14T13:49:40.265Z,53.9
2018-03-14T13:50:41.884Z,54.6
2018-03-14T13:51:43.501Z,54.4
2018-03-14T13:52:45.117Z,53.6
2018-03-14T13:53:46.743Z,51.8
2018-03-14T13:54:48.367Z,52.1
2018-03-14T13:55:49.983Z,51.5
2018-03-14T13:56:51.603Z,52.6
2018-03-14T13:57:53.224Z,53.3
2018-03-14T13:58:54.842Z,51.2
2018-03-14T13:59:56.463Z,53.3
2018-03-14T14:00:58.078Z,51.8
2018-03-14T14:01:59.702Z,51.2
2018-03-14T14:03:01.328Z,51.1
2018-03-14T14:04:02.944Z,52.0
2018-03-14T14:05:04.560Z,49.8
2018-03-14T14:06:06.184Z,51.7
2018-03-14T14:07:07.807Z,53.1
2018-03-14T14:08:09.422Z,52.5
2018-03-14T14:09:11.040Z,51.8
2018-03-14T14:10:12.667Z,50.4
2018-03-14T14:11:14.291Z,51.1
2018-03-14T14:12:15.909Z,50.6
2018-03-14T14:13:17.593Z,51.9
2018-03-14T14:14:19.154Z,52.7
2018-03-14T14:15:20.772Z,53.2
2018-03-14T14:16:22.393Z,49.4
2018-03-14T14:17:24.017Z,48.8
2018-03-14T14:18:25.634Z,49.3
2018-03-14T14:19:27.258Z,49.6
2018-03-14T14:20:28.870Z,49.0
2018-03-14T14:21:30.488Z,49.1
2018-03-14T14:22:32.109Z,48.8
2018-03-14T14:23:33.731Z,47.4
2018-03-14T14:24:35.351Z,47.5
2018-03-14T14:25:36.990Z,47.6
2018-03-14T14:26:38.592Z,46.4
2018-03-14T14:27:40.222Z,46.4
2018-03-14T14:28:41.833Z,48.6
2018-03-14T14:29:43.459Z,48.4
2018-03-14T14:30:45.075Z,48.9
2018-03-14T14:31:46.695Z,47.4
2018-03-14T14:32:48.321Z,46.9
2018-03-14T14:33:49.936Z,47.9
2018-03-14T14:34:51.560Z,48.6
2018-03-14T14:35:53.175Z,48.9
2018-03-14T14:36:54.800Z,49.7
2018-03-14T14:37:56.419Z,48.4
2018-03-14T14:38:58.042Z,47.8
2018-03-14T14:39:59.665Z,47.4
2018-03-14T14:41:01.281Z,49.0
2018-03-14T14:42:02.905Z,48.1
2018-03-14T14:43:04.520Z,48.7
2018-03-14T14:44:06.141Z,49.0
2018-03-14T14:45:07.761Z,49.0
2018-03-14T14:46:09.385Z,46.7
2018-03-14T14:47:11.003Z,48.2
2018-03-14T14:48:13.287Z,49.2
2018-03-14T14:49:14.188Z,49.1
2018-03-14T14:50:15.808Z,48.9
2018-03-14T14:51:18.110Z,48.2
2018-03-14T14:52:19.730Z,47.4
2018-03-14T14:53:21.348Z,48.3
2018-03-14T14:54:22.971Z,47.8
2018-03-14T14:55:24.593Z,46.9
2018-03-14T14:56:26.209Z,46.7
2018-03-14T14:57:27.830Z,46.2
2018-03-14T14:58:29.448Z,49.0
2018-03-14T14:59:31.075Z,46.8
2018-03-14T15:00:32.694Z,47.7
2018-03-14T15:01:34.320Z,49.7
2018-03-14T15:02:35.934Z,48.0
2018-03-14T15:03:37.556Z,48.0
2018-03-14T15:04:39.177Z,48.3
2018-03-14T15:05:40.796Z,48.5
2018-03-14T15:06:42.418Z,48.2
2018-03-14T15:07:44.041Z,48.9
2018-03-14T15:08:45.667Z,49.0
2018-03-14T15:09:47.279Z,49.1
2018-03-14T15:10:48.902Z,49.6
2018-03-14T15:11:50.523Z,51.2
2018-03-14T15:12:52.140Z,50.6
2018-03-14T15:13:53.766Z,50.3
2018-03-14T15:14:55.391Z,49.5